Terminal Aerodrome Forecast
Issued by NWS

Home | Current Version | Previous Version | Text Only | Print | Product List | Glossary On
Versions: 1 2 3 4 5 6 7 8 9 10 11 12 13 14 15 16 17 18
000
FTUS43 KABR 051231 AAA
TAFPIR
TAF AMD
KPIR 051231Z 0513/0612 12010KT P6SM SCT100
     FM051400 12015G24KT P6SM SCT250
      TEMPO 0514/0518 BKN040
     FM052000 13017G25KT P6SM BKN040
     FM060200 14013KT P6SM -RA OVC025=

USA.gov is the U.S. government's official web portal to all federal, state and local government web resources and services.